Kennewick, Washington
Current Conditions -  °F | °C
As of 5:53 PM on Friday 19 Dec 2014 (Local Time) from KPSC Reporting Station
Clear Clear  
Wind Chill: 41°   Ceiling: Unl
Heat Index: 44°   Visibility: 10mi
Dew Point: 37°   Wind: 6mph
Humidity: 76%   Direction: 210°SSW
Pressure: 30.02"   Gusts: NA
Location:  46.21°N, 119.11°W
Report Text: KPSC 200153Z 21005KT 10SM CLR 07/03 A3002 RMK AO2 SLP167 T00670028
Loading
Personal Weather Stations






























Interactive Weather Map New forecast layout! Learn more

10-Day Weather Forecast

Advertisements
Track Severe Weather on mobile